SVPL1: Red River at Shreveport Site 2

                                SHEF ID:       SVPL1     Red River at Shreveport Site 2
STATION TYPE:

PRECIP STAGE RIV-FLOW VOLTAGE
in ft cfs volt
Ccp-Rev Ccp-Rev Ccp-Rev Ccp-Rev
(America/Chicago)
07/03 00:00 0.00 20.16 45800 12.83
07/03 01:00 0.00 20.09 45450 12.82
07/03 02:00 0.00 20.03 45150 12.82
07/03 03:00 0.00 19.98 44900 12.80
07/03 04:00 0.00 19.92 44600 12.79
07/03 05:00 0.00 19.88 44400 12.77
07/03 06:00 0.00 19.81 44050 12.77
07/03 07:00 0.00 19.69 43450 13.01
07/03 08:00 0.00 19.63 43150 13.34
07/03 09:00 0.00 19.64 43200 13.07
07/03 10:00 0.00 19.57 42850 13.07
07/03 11:00 0.00 19.51 42550 13.09
07/03 12:00 0.00 19.42 42100 13.09
07/03 13:00 0.00 19.38 41900 13.05
07/03 14:00 0.00 19.34 41700 13.07
07/03 15:00 0.00 19.14 40700 13.07
07/03 16:00 0.00 19.12 40600 13.01
07/03 17:00 0.00 19.18 40900 13.07
07/03 18:00 0.00 19.09 40450 13.05
07/03 19:00 0.00 19.02 40100 12.91
07/03 20:00 0.00 18.96 39800 12.87
07/03 21:00 0.00 18.88 39400 12.86
07/03 22:00 0.00 18.82 39100 12.85
07/03 23:00 0.00 18.88 39400 12.86
Data processed at Sat 04Jul2026 04:24 GMT

NOTICE: If you are parsing this page

Please convert to using our Data API. Starting early 2026 we will be migrating to: https://water.usace.army.mil with modern pages rendered in JavaScript. When this migration completes you will no longer be able to scrape this page! CWMSDataAPI (CDA)

Timeseries IDs (TSIDs)

TSIDs used from left to right in the data table
SHRE.Precip-Inc.Total.1Hour.1Hour.Ccp-Rev
SHRE.Stage.Inst.1Hour.0.Ccp-Rev
SHRE.Flow.Inst.1Hour.0.Ccp-Rev
SHRE.Volt-Battery.Inst.1Hour.0.Ccp-Rev

                            

All information presented herein is the property of the government of the United States of America and may be revised or deleted at any time without prior notice. Dissemination of this information without the expressed written consent of the Public Affairs Office, Tulsa District U.S. Army Corps of Engineers is strictly prohibited. These data are gathered electronically and, as presented, have NOT undergone any form of quality control. These data are NOT guaranteed to be valid or correct.